Time;durP1;ratioP1;P1;durP2;ratioP2;P2;SDS_P1;SDS_P2;PMS_P1;PMS_P2;Temp;Humidity;BMP_temperature;BMP_pressure;BME280_temperature;BME280_humidity;BME280_pressure;Samples;Min_cycle;Max_cycle;Signal;HPM_P1;HPM_P2
2024/01/29 00:01:23;;;;;;;5.30;2.60;;;;;;;;;;5030371;28;20192;-73
2024/01/29 00:03:49;;;;;;;7.93;2.73;;;;;;;;;;5036809;28;20185;-73
2024/01/29 00:06:14;;;;;;;9.90;3.47;;;;;;;;;;5034696;28;20202;-73
2024/01/29 00:08:40;;;;;;;7.33;3.07;;;;;;;;;;5034268;28;20272;-74
2024/01/29 00:11:05;;;;;;;6.13;2.77;;;;;;;;;;5048617;28;20300;-73
2024/01/29 00:13:31;;;;;;;7.33;2.87;;;;;;;;;;5040504;28;20236;-74
2024/01/29 00:15:57;;;;;;;6.20;2.40;;;;;;;;;;5042536;28;20250;-73
2024/01/29 00:18:22;;;;;;;5.40;2.57;;;;;;;;;;5045770;28;20317;-72
2024/01/29 00:20:47;;;;;;;6.20;2.53;;;;;;;;;;5041405;28;20634;-73
2024/01/29 00:23:14;;;;;;;5.83;2.83;;;;;;;;;;5034469;28;20185;-73
2024/01/29 00:25:39;;;;;;;4.60;2.57;;;;;;;;;;5050763;28;20228;-73
2024/01/29 00:28:05;;;;;;;7.63;2.97;;;;;;;;;;5047895;28;20202;-73
2024/01/29 00:30:31;;;;;;;7.07;2.63;;;;;;;;;;5047192;28;20656;-74
2024/01/29 00:32:56;;;;;;;5.47;3.00;;;;;;;;;;5043580;28;20294;-73
2024/01/29 00:35:22;;;;;;;11.20;2.87;;;;;;;;;;5042034;28;20328;-73
2024/01/29 00:37:47;;;;;;;6.17;2.60;;;;;;;;;;5041376;28;20193;-74
2024/01/29 00:40:13;;;;;;;5.00;3.07;;;;;;;;;;5036061;28;20260;-73
2024/01/29 00:42:39;;;;;;;8.93;3.43;;;;;;;;;;5038383;28;20182;-74
2024/01/29 00:45:04;;;;;;;9.67;3.23;;;;;;;;;;5036441;28;20204;-73
2024/01/29 00:47:30;;;;;;;4.37;2.90;;;;;;;;;;5046704;28;20289;-74
2024/01/29 00:49:56;;;;;;;4.87;3.00;;;;;;;;;;5035419;28;20270;-74
2024/01/29 00:52:21;;;;;;;6.70;3.00;;;;;;;;;;5035726;28;20264;-73
2024/01/29 00:54:47;;;;;;;8.33;3.00;;;;;;;;;;5028013;28;20721;-74
2024/01/29 00:57:15;;;;;;;5.30;2.87;;;;;;;;;;5040058;28;20195;-73
2024/01/29 00:59:44;;;;;;;6.13;3.10;;;;;;;;;;5036016;28;20596;-74
2024/01/29 01:02:09;;;;;;;6.60;2.83;;;;;;;;;;5028854;28;20187;-74
2024/01/29 01:04:35;;;;;;;7.67;3.30;;;;;;;;;;5045849;28;20193;-74
2024/01/29 01:07:00;;;;;;;7.70;3.30;;;;;;;;;;5039374;28;20696;-73
2024/01/29 01:09:25;;;;;;;5.73;3.20;;;;;;;;;;5040164;28;20194;-73
2024/01/29 01:11:51;;;;;;;8.37;3.00;;;;;;;;;;5043175;28;20262;-73
2024/01/29 01:14:16;;;;;;;7.50;3.03;;;;;;;;;;5038301;28;20759;-73
2024/01/29 01:16:42;;;;;;;6.77;3.00;;;;;;;;;;5043065;28;20224;-73
2024/01/29 01:19:07;;;;;;;6.80;2.90;;;;;;;;;;5038908;28;20564;-73
2024/01/29 01:21:33;;;;;;;9.97;3.17;;;;;;;;;;5046764;28;20283;-73
2024/01/29 01:23:58;;;;;;;8.43;3.27;;;;;;;;;;5039992;28;20201;-73
2024/01/29 01:26:24;;;;;;;5.93;3.13;;;;;;;;;;5027894;28;20260;-73
2024/01/29 01:28:49;;;;;;;5.90;2.90;;;;;;;;;;5046956;28;20186;-73
2024/01/29 01:31:15;;;;;;;7.90;3.03;;;;;;;;;;5035401;28;20256;-73
2024/01/29 01:33:41;;;;;;;6.47;3.50;;;;;;;;;;5031782;28;20189;-73
2024/01/29 01:36:06;;;;;;;5.43;2.83;;;;;;;;;;5037937;28;20237;-74
2024/01/29 01:38:32;;;;;;;5.60;3.17;;;;;;;;;;5039250;28;20190;-73
2024/01/29 01:40:57;;;;;;;7.40;3.00;;;;;;;;;;5033359;28;20193;-74
2024/01/29 01:43:23;;;;;;;7.70;2.97;;;;;;;;;;5042777;28;20185;-73
2024/01/29 01:46:16;;;;;;;8.17;3.30;;;;;;;;;;5036829;28;20185;-74
2024/01/29 01:48:41;;;;;;;5.60;3.00;;;;;;;;;;5041673;28;20190;-73
2024/01/29 01:51:07;;;;;;;7.63;2.93;;;;;;;;;;5055058;28;20220;-73
2024/01/29 01:53:36;;;;;;;8.63;3.40;;;;;;;;;;5039543;28;20294;-73
2024/01/29 01:56:03;;;;;;;6.30;3.10;;;;;;;;;;5029264;28;20238;-74
2024/01/29 01:58:30;;;;;;;6.37;3.07;;;;;;;;;;5048933;28;20188;-74
2024/01/29 02:00:56;;;;;;;8.47;3.13;;;;;;;;;;5040358;28;20645;-73
2024/01/29 02:03:21;;;;;;;6.93;2.80;;;;;;;;;;5025946;28;20198;-74
2024/01/29 02:05:47;;;;;;;6.10;3.20;;;;;;;;;;5035913;28;20296;-73
2024/01/29 02:08:15;;;;;;;5.47;2.83;;;;;;;;;;5036609;28;20182;-73
2024/01/29 02:10:40;;;;;;;5.83;3.00;;;;;;;;;;5038359;28;20232;-73
2024/01/29 02:13:15;;;;;;;6.50;2.97;;;;;;;;;;5040285;28;20271;-73
2024/01/29 02:15:41;;;;;;;5.77;3.30;;;;;;;;;;5033320;28;20197;-73
2024/01/29 02:18:07;;;;;;;3.53;2.80;;;;;;;;;;5025645;28;20294;-73
2024/01/29 02:20:33;;;;;;;6.13;3.27;;;;;;;;;;5062718;28;20564;-73
2024/01/29 02:22:59;;;;;;;7.77;3.50;;;;;;;;;;5035630;28;20178;-73
2024/01/29 02:25:24;;;;;;;9.27;3.43;;;;;;;;;;5029995;28;20190;-73
2024/01/29 02:27:50;;;;;;;5.17;3.03;;;;;;;;;;5037870;28;20312;-73
2024/01/29 02:30:15;;;;;;;6.90;3.43;;;;;;;;;;5023504;28;20276;-72
2024/01/29 02:32:41;;;;;;;8.07;3.57;;;;;;;;;;5034465;28;20233;-73
2024/01/29 02:35:07;;;;;;;7.83;3.10;;;;;;;;;;5046399;28;20247;-73
2024/01/29 02:37:33;;;;;;;7.50;3.53;;;;;;;;;;5034414;28;20194;-73
2024/01/29 02:39:58;;;;;;;8.50;3.57;;;;;;;;;;5035038;28;20296;-73
2024/01/29 02:42:23;;;;;;;8.77;3.27;;;;;;;;;;5036161;28;20534;-73
2024/01/29 02:44:49;;;;;;;6.97;3.33;;;;;;;;;;5034128;28;20649;-74
2024/01/29 02:47:17;;;;;;;8.13;3.23;;;;;;;;;;5047381;28;20262;-73
2024/01/29 02:49:43;;;;;;;8.60;3.20;;;;;;;;;;5043069;28;20205;-74
2024/01/29 02:52:12;;;;;;;5.00;2.93;;;;;;;;;;5037862;28;20210;-74
2024/01/29 02:54:38;;;;;;;7.10;3.00;;;;;;;;;;5046212;28;20619;-74
2024/01/29 02:57:04;;;;;;;9.93;3.30;;;;;;;;;;5047064;28;20264;-74
2024/01/29 02:59:30;;;;;;;6.13;3.50;;;;;;;;;;5040122;28;20276;-73
2024/01/29 03:01:57;;;;;;;8.27;3.10;;;;;;;;;;5040839;28;20560;-74
2024/01/29 03:04:23;;;;;;;4.90;3.20;;;;;;;;;;5030629;28;20209;-73
2024/01/29 03:06:48;;;;;;;5.47;3.30;;;;;;;;;;5031001;28;20186;-73
2024/01/29 03:09:14;;;;;;;6.03;3.30;;;;;;;;;;5037985;28;20625;-73
2024/01/29 03:11:40;;;;;;;6.23;3.60;;;;;;;;;;5037025;28;20220;-73
2024/01/29 03:14:05;;;;;;;5.10;3.00;;;;;;;;;;5048864;28;20654;-73
2024/01/29 03:16:31;;;;;;;6.77;3.40;;;;;;;;;;5032851;28;20368;-73
2024/01/29 03:18:56;;;;;;;7.43;3.27;;;;;;;;;;5044005;28;20587;-73
2024/01/29 03:21:22;;;;;;;5.57;3.03;;;;;;;;;;5048534;28;20205;-73
2024/01/29 03:23:49;;;;;;;5.80;3.13;;;;;;;;;;5029164;28;20202;-73
2024/01/29 03:26:14;;;;;;;5.70;3.87;;;;;;;;;;5036027;28;20256;-73
2024/01/29 03:28:40;;;;;;;7.60;3.43;;;;;;;;;;5035783;28;20194;-73
2024/01/29 03:31:06;;;;;;;6.53;3.87;;;;;;;;;;5044274;28;20897;-74
2024/01/29 03:33:31;;;;;;;9.23;3.50;;;;;;;;;;5036903;28;20310;-73
2024/01/29 03:35:57;;;;;;;6.03;3.60;;;;;;;;;;5037389;28;20289;-72
2024/01/29 03:38:22;;;;;;;8.03;3.80;;;;;;;;;;5035281;28;20185;-72
2024/01/29 03:40:48;;;;;;;6.70;3.60;;;;;;;;;;5032586;28;20227;-73
2024/01/29 03:43:13;;;;;;;5.87;3.50;;;;;;;;;;5039035;28;20188;-72
2024/01/29 03:45:39;;;;;;;8.07;3.90;;;;;;;;;;5049420;28;20202;-72
2024/01/29 03:48:04;;;;;;;9.97;3.67;;;;;;;;;;5037953;28;20202;-72
2024/01/29 03:50:30;;;;;;;6.43;3.30;;;;;;;;;;5041650;28;20192;-73
2024/01/29 03:52:55;;;;;;;5.87;3.37;;;;;;;;;;5049932;28;20648;-73
2024/01/29 03:55:21;;;;;;;6.37;3.30;;;;;;;;;;5033474;28;20238;-72
2024/01/29 03:57:47;;;;;;;8.80;3.60;;;;;;;;;;5036254;28;20256;-72
2024/01/29 04:00:13;;;;;;;5.13;3.27;;;;;;;;;;5044371;28;20276;-73
2024/01/29 04:02:38;;;;;;;6.27;3.40;;;;;;;;;;5046488;28;20264;-73
2024/01/29 04:05:04;;;;;;;5.50;3.40;;;;;;;;;;5038901;28;20218;-73
2024/01/29 04:07:29;;;;;;;6.53;3.90;;;;;;;;;;5041553;28;20249;-73
2024/01/29 04:09:55;;;;;;;6.03;3.33;;;;;;;;;;5025090;28;20216;-73
2024/01/29 04:12:20;;;;;;;5.97;3.20;;;;;;;;;;5044377;28;20217;-73
2024/01/29 04:14:46;;;;;;;7.50;3.20;;;;;;;;;;5030978;28;20281;-73
2024/01/29 04:17:12;;;;;;;6.37;3.30;;;;;;;;;;5048912;28;20255;-73
2024/01/29 04:19:38;;;;;;;5.90;3.80;;;;;;;;;;5037237;28;20324;-73
2024/01/29 04:22:05;;;;;;;6.37;3.40;;;;;;;;;;5034455;28;20618;-72
2024/01/29 04:24:30;;;;;;;5.07;3.20;;;;;;;;;;5031514;28;20285;-72
2024/01/29 04:26:56;;;;;;;8.43;3.50;;;;;;;;;;5041334;28;20659;-72
2024/01/29 04:29:22;;;;;;;4.90;3.30;;;;;;;;;;5042189;28;20202;-73
2024/01/29 04:31:47;;;;;;;6.43;3.37;;;;;;;;;;5042782;28;20291;-73
2024/01/29 04:34:12;;;;;;;6.80;3.17;;;;;;;;;;5046778;28;20186;-73
2024/01/29 04:36:38;;;;;;;6.37;3.27;;;;;;;;;;5034992;28;20652;-73
2024/01/29 04:39:03;;;;;;;5.90;3.20;;;;;;;;;;5041357;28;20197;-72
2024/01/29 04:41:29;;;;;;;8.03;3.40;;;;;;;;;;5030013;28;20194;-74
2024/01/29 04:43:54;;;;;;;6.67;3.20;;;;;;;;;;5046576;28;20188;-74
2024/01/29 04:46:20;;;;;;;10.07;4.40;;;;;;;;;;5044562;28;20229;-74
2024/01/29 04:48:45;;;;;;;6.30;3.50;;;;;;;;;;5036440;28;20649;-74
2024/01/29 04:51:11;;;;;;;6.13;3.40;;;;;;;;;;5032130;28;20229;-74
2024/01/29 04:53:38;;;;;;;8.43;3.73;;;;;;;;;;5038056;28;20355;-74
2024/01/29 04:56:04;;;;;;;6.80;3.70;;;;;;;;;;5043264;28;20300;-74
2024/01/29 04:58:30;;;;;;;6.40;3.40;;;;;;;;;;5035242;28;20336;-74
2024/01/29 05:00:55;;;;;;;4.60;3.23;;;;;;;;;;5033551;28;20202;-74
2024/01/29 05:03:21;;;;;;;6.17;3.80;;;;;;;;;;5031440;28;20189;-74
2024/01/29 05:05:47;;;;;;;7.90;3.67;;;;;;;;;;5041233;28;20241;-74
2024/01/29 05:08:13;;;;;;;5.70;3.83;;;;;;;;;;5043775;28;20255;-74
2024/01/29 05:10:39;;;;;;;5.30;3.17;;;;;;;;;;5034282;28;20202;-75
2024/01/29 05:13:04;;;;;;;5.63;3.60;;;;;;;;;;5036342;28;20883;-74
2024/01/29 05:15:30;;;;;;;7.70;3.33;;;;;;;;;;5039043;28;20193;-74
2024/01/29 05:17:55;;;;;;;6.03;3.80;;;;;;;;;;5039888;28;20229;-75
2024/01/29 05:20:20;;;;;;;6.10;3.53;;;;;;;;;;5036428;28;20189;-74
2024/01/29 05:22:46;;;;;;;9.13;3.70;;;;;;;;;;5017019;28;20182;-74
2024/01/29 05:25:11;;;;;;;6.17;3.60;;;;;;;;;;5035733;28;20252;-74
2024/01/29 05:27:37;;;;;;;5.50;3.53;;;;;;;;;;5040482;28;20181;-74
2024/01/29 05:30:02;;;;;;;5.60;3.77;;;;;;;;;;5036902;28;20612;-74
2024/01/29 05:32:28;;;;;;;4.53;3.23;;;;;;;;;;5037589;28;20231;-75
2024/01/29 05:34:53;;;;;;;8.13;3.20;;;;;;;;;;5029486;28;20186;-74
2024/01/29 05:37:19;;;;;;;6.83;3.20;;;;;;;;;;5036585;28;20297;-74
2024/01/29 05:39:44;;;;;;;7.47;3.43;;;;;;;;;;5034816;28;20595;-74
2024/01/29 05:42:09;;;;;;;6.83;3.67;;;;;;;;;;5030600;28;20201;-74
2024/01/29 05:44:35;;;;;;;4.47;3.10;;;;;;;;;;5032108;28;20194;-73
2024/01/29 05:47:00;;;;;;;5.83;3.33;;;;;;;;;;5032381;28;20197;-73
2024/01/29 05:49:26;;;;;;;5.33;3.60;;;;;;;;;;5027985;28;20197;-74
2024/01/29 05:51:51;;;;;;;8.80;3.60;;;;;;;;;;5015577;28;20237;-73
2024/01/29 05:54:16;;;;;;;5.37;3.50;;;;;;;;;;5027640;28;20206;-73
2024/01/29 05:56:43;;;;;;;6.20;3.80;;;;;;;;;;5024828;28;20189;-73
2024/01/29 05:59:08;;;;;;;8.20;3.53;;;;;;;;;;5036725;28;20221;-73
2024/01/29 06:01:34;;;;;;;7.30;3.83;;;;;;;;;;5027274;28;20615;-73
2024/01/29 06:04:00;;;;;;;7.80;3.43;;;;;;;;;;5017646;28;20640;-73
2024/01/29 06:06:27;;;;;;;11.30;4.03;;;;;;;;;;5041027;28;20190;-73
2024/01/29 06:08:52;;;;;;;8.10;3.80;;;;;;;;;;5044791;28;20233;-74
2024/01/29 06:11:18;;;;;;;6.47;3.83;;;;;;;;;;5041462;28;20717;-74
2024/01/29 06:13:44;;;;;;;5.27;3.50;;;;;;;;;;5032657;28;20893;-74
2024/01/29 06:16:09;;;;;;;4.97;3.20;;;;;;;;;;5035675;28;20205;-73
2024/01/29 06:18:35;;;;;;;6.63;3.40;;;;;;;;;;5039263;28;20206;-73
2024/01/29 06:21:00;;;;;;;8.43;4.10;;;;;;;;;;5043904;28;20201;-73
2024/01/29 06:23:28;;;;;;;6.50;3.03;;;;;;;;;;5035431;28;20585;-74
2024/01/29 06:25:53;;;;;;;5.80;3.53;;;;;;;;;;5038895;28;20186;-73
2024/01/29 06:28:19;;;;;;;5.83;3.97;;;;;;;;;;5045026;28;20276;-73
2024/01/29 06:30:44;;;;;;;9.30;3.47;;;;;;;;;;5035279;28;20276;-73
2024/01/29 06:33:10;;;;;;;8.07;3.53;;;;;;;;;;5035562;28;20299;-72
2024/01/29 06:35:35;;;;;;;5.23;3.40;;;;;;;;;;5043424;28;20401;-73
2024/01/29 06:38:04;;;;;;;6.97;3.50;;;;;;;;;;5044822;28;20216;-74
2024/01/29 06:40:29;;;;;;;5.90;3.43;;;;;;;;;;5047111;28;20190;-73
2024/01/29 06:42:58;;;;;;;9.23;4.27;;;;;;;;;;5035416;28;20190;-73
2024/01/29 06:45:23;;;;;;;8.73;4.27;;;;;;;;;;5032793;28;20194;-73
2024/01/29 06:47:49;;;;;;;7.87;4.40;;;;;;;;;;5030450;28;20556;-73
2024/01/29 06:50:14;;;;;;;8.57;4.20;;;;;;;;;;5036138;28;20197;-73
2024/01/29 06:52:40;;;;;;;5.43;3.40;;;;;;;;;;5040980;28;20213;-74
2024/01/29 06:55:05;;;;;;;9.73;3.73;;;;;;;;;;5029655;28;20281;-74
2024/01/29 06:57:31;;;;;;;5.47;3.37;;;;;;;;;;5037771;28;20204;-73
2024/01/29 06:59:57;;;;;;;5.40;3.57;;;;;;;;;;5033906;28;20189;-73
2024/01/29 07:02:22;;;;;;;6.47;3.63;;;;;;;;;;5039420;28;23157;-73
2024/01/29 07:04:48;;;;;;;8.87;4.17;;;;;;;;;;5030925;28;20194;-73
2024/01/29 07:07:14;;;;;;;6.17;3.57;;;;;;;;;;5033005;28;20186;-73
2024/01/29 07:09:40;;;;;;;5.33;3.60;;;;;;;;;;5044501;28;20703;-74
2024/01/29 07:12:06;;;;;;;6.20;3.57;;;;;;;;;;5027046;28;20818;-73
2024/01/29 07:14:31;;;;;;;5.57;3.47;;;;;;;;;;5024723;28;20186;-74
2024/01/29 07:16:56;;;;;;;6.40;3.70;;;;;;;;;;5035531;28;20669;-74
2024/01/29 07:19:33;;;;;;;5.50;3.70;;;;;;;;;;5040888;28;20221;-73
2024/01/29 07:22:05;;;;;;;6.27;3.40;;;;;;;;;;5041377;28;20181;-74
2024/01/29 07:24:34;;;;;;;8.37;4.00;;;;;;;;;;5032118;28;20189;-73
2024/01/29 07:27:00;;;;;;;7.37;3.40;;;;;;;;;;5041417;28;20424;-73
2024/01/29 07:29:26;;;;;;;7.27;3.27;;;;;;;;;;5053339;28;20255;-73
2024/01/29 07:31:55;;;;;;;7.97;3.80;;;;;;;;;;5036843;28;20563;-73
2024/01/29 07:34:21;;;;;;;5.60;3.27;;;;;;;;;;5042637;28;20192;-73
2024/01/29 07:36:47;;;;;;;8.57;3.77;;;;;;;;;;5042871;28;20186;-73
2024/01/29 07:39:13;;;;;;;5.43;3.50;;;;;;;;;;5039536;28;20202;-73
2024/01/29 07:41:39;;;;;;;6.67;3.50;;;;;;;;;;5042496;28;20190;-73
2024/01/29 07:44:04;;;;;;;8.13;3.33;;;;;;;;;;5042229;28;20204;-73
2024/01/29 07:46:30;;;;;;;5.07;3.67;;;;;;;;;;5043633;28;20186;-73
2024/01/29 07:48:56;;;;;;;4.67;3.23;;;;;;;;;;5041436;28;20593;-73
2024/01/29 07:51:22;;;;;;;5.10;4.00;;;;;;;;;;5045873;28;20557;-73
2024/01/29 07:53:47;;;;;;;8.30;4.00;;;;;;;;;;5037356;28;20606;-74
2024/01/29 07:56:13;;;;;;;4.67;3.30;;;;;;;;;;5047147;28;20589;-74
2024/01/29 07:58:38;;;;;;;6.93;3.30;;;;;;;;;;5036435;28;20216;-74
2024/01/29 08:01:04;;;;;;;9.67;4.20;;;;;;;;;;5041677;28;20190;-73
2024/01/29 08:03:29;;;;;;;7.70;3.43;;;;;;;;;;5044508;28;20357;-73
2024/01/29 08:05:55;;;;;;;7.00;3.70;;;;;;;;;;5038451;28;20479;-73
2024/01/29 08:08:20;;;;;;;8.53;3.93;;;;;;;;;;5027824;28;20189;-73
2024/01/29 08:10:47;;;;;;;6.25;3.63;;;;;;;;;;5031316;28;20638;-73
2024/01/29 08:13:13;;;;;;;8.90;3.50;;;;;;;;;;5029200;28;20700;-73
2024/01/29 08:15:39;;;;;;;5.47;3.37;;;;;;;;;;5030768;28;20216;-73
2024/01/29 08:18:05;;;;;;;6.13;3.47;;;;;;;;;;5034103;28;20241;-73
2024/01/29 08:20:30;;;;;;;7.43;3.60;;;;;;;;;;5036769;28;20197;-73
2024/01/29 08:22:56;;;;;;;6.37;3.60;;;;;;;;;;5036587;28;20198;-72
2024/01/29 08:25:21;;;;;;;5.07;3.13;;;;;;;;;;5042468;28;20571;-73
2024/01/29 08:27:48;;;;;;;7.13;3.60;;;;;;;;;;5030087;28;20236;-73
2024/01/29 08:30:14;;;;;;;5.80;3.73;;;;;;;;;;5037565;28;20231;-73
2024/01/29 08:32:43;;;;;;;7.07;3.90;;;;;;;;;;5047606;28;20321;-73
2024/01/29 08:35:09;;;;;;;6.83;3.53;;;;;;;;;;5028197;28;20669;-73
2024/01/29 08:37:34;;;;;;;9.13;3.87;;;;;;;;;;5034768;28;20201;-73
2024/01/29 08:40:00;;;;;;;8.13;3.90;;;;;;;;;;5027058;28;20275;-73
2024/01/29 08:42:25;;;;;;;5.27;3.60;;;;;;;;;;5043956;28;20297;-73
2024/01/29 08:44:50;;;;;;;4.73;3.50;;;;;;;;;;5032774;28;20194;-73
2024/01/29 08:47:16;;;;;;;5.37;3.50;;;;;;;;;;5048190;28;20213;-73
2024/01/29 08:49:41;;;;;;;5.83;3.63;;;;;;;;;;5046614;28;20204;-73
2024/01/29 08:52:06;;;;;;;6.43;3.80;;;;;;;;;;5028647;28;20572;-73
2024/01/29 08:54:32;;;;;;;5.60;3.73;;;;;;;;;;5037375;28;20608;-73
2024/01/29 08:56:57;;;;;;;6.97;4.00;;;;;;;;;;5040588;28;20199;-73
2024/01/29 08:59:23;;;;;;;5.80;4.00;;;;;;;;;;5030089;28;20197;-73
2024/01/29 09:01:48;;;;;;;7.73;3.90;;;;;;;;;;5041557;28;20188;-73
2024/01/29 09:04:14;;;;;;;6.17;3.67;;;;;;;;;;5040815;28;20198;-73
2024/01/29 09:06:39;;;;;;;7.60;4.60;;;;;;;;;;5044904;28;20229;-73
2024/01/29 09:09:05;;;;;;;6.43;3.30;;;;;;;;;;5040713;28;20256;-73
2024/01/29 09:11:30;;;;;;;7.70;3.83;;;;;;;;;;5037889;28;20208;-72
2024/01/29 09:13:55;;;;;;;5.75;4.15;;;;;;;;;;5040766;28;20190;-73
2024/01/29 09:16:21;;;;;;;7.60;4.23;;;;;;;;;;5045364;28;20193;-73
2024/01/29 09:18:46;;;;;;;7.95;4.88;;;;;;;;;;5046240;28;20255;-73
2024/01/29 09:21:12;;;;;;;5.68;3.70;;;;;;;;;;5034488;28;20832;-72
2024/01/29 09:23:38;;;;;;;7.23;4.27;;;;;;;;;;5037612;28;20223;-72
2024/01/29 09:26:05;;;;;;;6.55;4.32;;;;;;;;;;5039877;28;20240;-72
2024/01/29 09:28:30;;;;;;;7.70;4.13;;;;;;;;;;5028860;28;20598;-72
2024/01/29 09:30:56;;;;;;;6.65;4.20;;;;;;;;;;5041376;28;20218;-72
2024/01/29 09:33:21;;;;;;;6.57;4.40;;;;;;;;;;5044709;28;20343;-73
2024/01/29 09:35:47;;;;;;;7.75;4.20;;;;;;;;;;5038226;28;20197;-72
2024/01/29 09:38:14;;;;;;;6.13;4.22;;;;;;;;;;5051558;28;20264;-72
2024/01/29 09:40:42;;;;;;;6.93;4.72;;;;;;;;;;5032826;28;20269;-72
2024/01/29 09:43:09;;;;;;;11.43;4.47;;;;;;;;;;5034805;28;20247;-72
2024/01/29 09:45:37;;;;;;;8.93;4.28;;;;;;;;;;5043814;28;20213;-72
2024/01/29 09:48:04;;;;;;;7.85;4.47;;;;;;;;;;5043216;28;20688;-72
2024/01/29 09:50:30;;;;;;;10.27;4.30;;;;;;;;;;5045223;28;20189;-73
2024/01/29 09:52:57;;;;;;;7.13;4.43;;;;;;;;;;5043279;28;20210;-72
2024/01/29 09:55:25;;;;;;;6.70;4.88;;;;;;;;;;5042920;28;20200;-72
2024/01/29 09:57:50;;;;;;;6.93;4.35;;;;;;;;;;5032762;28;20194;-72
2024/01/29 10:00:17;;;;;;;7.55;4.40;;;;;;;;;;5040254;28;20189;-72
2024/01/29 10:02:44;;;;;;;8.65;5.03;;;;;;;;;;5035202;28;20662;-73
2024/01/29 10:05:11;;;;;;;10.60;5.18;;;;;;;;;;5042849;28;20227;-73
2024/01/29 10:07:41;;;;;;;7.85;5.15;;;;;;;;;;5038635;28;20243;-73
2024/01/29 10:10:08;;;;;;;7.25;5.00;;;;;;;;;;5029464;28;20186;-73
2024/01/29 10:12:34;;;;;;;10.52;4.95;;;;;;;;;;5026443;28;20738;-73
2024/01/29 10:14:59;;;;;;;7.32;4.75;;;;;;;;;;5027130;28;20273;-73
2024/01/29 10:17:25;;;;;;;8.23;5.07;;;;;;;;;;5045297;28;20318;-73
2024/01/29 10:19:50;;;;;;;7.93;4.82;;;;;;;;;;5034794;28;20358;-73
2024/01/29 10:22:16;;;;;;;9.07;5.57;;;;;;;;;;5035030;28;20548;-73
2024/01/29 10:24:42;;;;;;;11.40;5.53;;;;;;;;;;5034179;28;20182;-73
2024/01/29 10:27:08;;;;;;;12.23;5.40;;;;;;;;;;5029441;28;20186;-73
2024/01/29 10:29:45;;;;;;;7.25;5.50;;;;;;;;;;5026260;28;20187;-73
2024/01/29 10:32:10;;;;;;;7.50;5.15;;;;;;;;;;5027630;28;20210;-73
2024/01/29 10:34:36;;;;;;;7.05;5.05;;;;;;;;;;5042233;28;20527;-74
2024/01/29 10:37:05;;;;;;;8.40;4.78;;;;;;;;;;5030462;28;20181;-74
2024/01/29 10:39:31;;;;;;;8.13;5.40;;;;;;;;;;5029047;28;20533;-74
2024/01/29 10:41:57;;;;;;;9.27;5.82;;;;;;;;;;5039405;28;20732;-74
2024/01/29 10:44:25;;;;;;;9.98;5.18;;;;;;;;;;5045702;28;20268;-74
2024/01/29 10:46:53;;;;;;;7.40;4.88;;;;;;;;;;5027941;28;20216;-74
2024/01/29 10:49:20;;;;;;;8.10;5.75;;;;;;;;;;5032090;28;20230;-74
2024/01/29 10:51:47;;;;;;;8.35;5.18;;;;;;;;;;5042342;28;20234;-74
2024/01/29 10:54:13;;;;;;;7.70;5.97;;;;;;;;;;5046939;28;20204;-74
2024/01/29 10:56:39;;;;;;;14.70;5.78;;;;;;;;;;5045527;28;20257;-74
2024/01/29 10:59:05;;;;;;;7.22;5.50;;;;;;;;;;5048593;28;20273;-74
2024/01/29 11:01:33;;;;;;;7.22;5.47;;;;;;;;;;5016189;28;20216;-74
2024/01/29 11:04:00;;;;;;;9.52;6.10;;;;;;;;;;5040649;28;20221;-74
2024/01/29 11:07:01;;;;;;;9.35;6.05;;;;;;;;;;5040101;28;20208;-73
2024/01/29 11:09:28;;;;;;;9.85;6.05;;;;;;;;;;5019716;28;20579;-74
2024/01/29 11:11:56;;;;;;;14.07;7.10;;;;;;;;;;5046294;28;20668;-73
2024/01/29 11:14:22;;;;;;;12.07;6.75;;;;;;;;;;5041427;28;20700;-73
2024/01/29 11:16:51;;;;;;;9.05;5.95;;;;;;;;;;5029693;28;20242;-73
2024/01/29 11:19:17;;;;;;;11.88;5.93;;;;;;;;;;5036987;28;20218;-74
2024/01/29 11:21:51;;;;;;;9.55;6.00;;;;;;;;;;5036769;28;20186;-73
2024/01/29 11:24:21;;;;;;;12.63;6.10;;;;;;;;;;5038434;28;20619;-73
2024/01/29 11:26:47;;;;;;;13.60;6.38;;;;;;;;;;5050715;28;20245;-73
2024/01/29 11:29:14;;;;;;;7.93;6.15;;;;;;;;;;5045952;28;20210;-74
2024/01/29 11:31:53;;;;;;;10.32;6.40;;;;;;;;;;5047042;28;20643;-73
2024/01/29 11:34:27;;;;;;;8.57;6.25;;;;;;;;;;5045371;28;20177;-73
2024/01/29 11:36:56;;;;;;;10.90;6.57;;;;;;;;;;5041618;28;20719;-73
2024/01/29 11:39:24;;;;;;;10.10;6.30;;;;;;;;;;5036542;28;20263;-74
2024/01/29 11:41:51;;;;;;;13.35;6.65;;;;;;;;;;5040538;28;20202;-74
2024/01/29 11:44:18;;;;;;;11.02;7.05;;;;;;;;;;5042205;28;20189;-74
2024/01/29 11:46:44;;;;;;;9.70;6.15;;;;;;;;;;5044655;28;20506;-73
2024/01/29 11:49:10;;;;;;;10.40;5.65;;;;;;;;;;5049824;28;20190;-73
2024/01/29 11:51:37;;;;;;;8.60;6.30;;;;;;;;;;5031162;28;20248;-74
2024/01/29 11:54:03;;;;;;;10.80;6.05;;;;;;;;;;5037519;28;20193;-73
2024/01/29 11:56:29;;;;;;;10.10;6.30;;;;;;;;;;5041194;28;20530;-73
2024/01/29 11:59:04;;;;;;;10.77;6.82;;;;;;;;;;5041341;28;20189;-73
2024/01/29 12:01:33;;;;;;;10.50;6.65;;;;;;;;;;5037001;28;20197;-73
2024/01/29 12:03:59;;;;;;;11.93;6.50;;;;;;;;;;5048323;28;20288;-73
2024/01/29 12:06:25;;;;;;;11.20;5.90;;;;;;;;;;5042709;28;20484;-73
2024/01/29 12:08:53;;;;;;;12.98;7.30;;;;;;;;;;5036116;28;20645;-73
2024/01/29 12:11:20;;;;;;;10.80;6.82;;;;;;;;;;5048287;28;20244;-73
2024/01/29 12:13:47;;;;;;;13.23;7.35;;;;;;;;;;5042679;28;20283;-73
2024/01/29 12:16:13;;;;;;;10.38;6.60;;;;;;;;;;5046220;28;20237;-73
2024/01/29 12:18:38;;;;;;;12.65;6.82;;;;;;;;;;5040698;28;20233;-73
2024/01/29 12:21:05;;;;;;;10.93;7.18;;;;;;;;;;5033880;28;20551;-73
2024/01/29 12:23:32;;;;;;;14.02;8.48;;;;;;;;;;5030979;28;20186;-73
2024/01/29 12:25:57;;;;;;;9.02;6.70;;;;;;;;;;5041798;28;20552;-73
2024/01/29 12:28:25;;;;;;;10.68;7.03;;;;;;;;;;5047964;28;20204;-73
2024/01/29 12:30:59;;;;;;;9.90;6.72;;;;;;;;;;5046151;28;20190;-73
2024/01/29 12:33:29;;;;;;;10.23;6.60;;;;;;;;;;5047072;28;20683;-74
2024/01/29 12:35:55;;;;;;;10.15;7.38;;;;;;;;;;5031209;28;20248;-73
2024/01/29 12:38:22;;;;;;;12.57;7.05;;;;;;;;;;5041520;28;20194;-74
2024/01/29 12:40:53;;;;;;;9.75;6.90;;;;;;;;;;5037541;28;20189;-73
2024/01/29 12:43:29;;;;;;;10.68;6.85;;;;;;;;;;5035612;28;20182;-74
2024/01/29 12:46:11;;;;;;;12.23;7.20;;;;;;;;;;5036587;28;20189;-74
2024/01/29 12:48:37;;;;;;;9.63;6.90;;;;;;;;;;5044854;28;20181;-73
2024/01/29 12:51:04;;;;;;;13.63;7.85;;;;;;;;;;5035315;28;20316;-73
2024/01/29 12:53:29;;;;;;;10.05;7.60;;;;;;;;;;5036031;28;20217;-73
2024/01/29 12:55:55;;;;;;;10.70;6.90;;;;;;;;;;5040709;28;20189;-73
2024/01/29 12:58:20;;;;;;;11.07;7.13;;;;;;;;;;5035012;28;20669;-73
2024/01/29 13:00:46;;;;;;;10.52;7.13;;;;;;;;;;5032090;28;20186;-73
2024/01/29 13:03:11;;;;;;;10.52;7.13;;;;;;;;;;5033892;28;20491;-73
2024/01/29 13:05:37;;;;;;;11.85;7.72;;;;;;;;;;5032668;28;20199;-74
2024/01/29 13:08:03;;;;;;;10.70;7.35;;;;;;;;;;5029823;28;20198;-74
2024/01/29 13:10:30;;;;;;;9.38;6.82;;;;;;;;;;5041965;28;20197;-74
2024/01/29 13:12:56;;;;;;;11.32;7.90;;;;;;;;;;5030361;28;20201;-73
2024/01/29 13:15:22;;;;;;;9.48;6.97;;;;;;;;;;5025634;28;20193;-73
2024/01/29 13:17:47;;;;;;;12.38;7.63;;;;;;;;;;5038362;28;20272;-74
2024/01/29 13:20:13;;;;;;;9.70;7.80;;;;;;;;;;5034838;28;20252;-74
2024/01/29 13:22:39;;;;;;;9.73;7.35;;;;;;;;;;5041736;28;20189;-74
2024/01/29 13:25:05;;;;;;;10.00;7.07;;;;;;;;;;5034025;28;20195;-74
2024/01/29 13:27:31;;;;;;;11.27;7.80;;;;;;;;;;5045557;28;20185;-74
2024/01/29 13:29:57;;;;;;;13.52;8.45;;;;;;;;;;5032002;28;20624;-74
2024/01/29 13:32:23;;;;;;;10.57;8.10;;;;;;;;;;5044806;28;20217;-74
2024/01/29 13:34:48;;;;;;;11.48;7.03;;;;;;;;;;5032941;28;20221;-74
2024/01/29 13:37:14;;;;;;;11.52;7.30;;;;;;;;;;5031815;28;20232;-74
2024/01/29 13:39:40;;;;;;;12.63;7.03;;;;;;;;;;5036006;28;20182;-74
2024/01/29 13:42:06;;;;;;;12.60;7.55;;;;;;;;;;5018326;28;20284;-74
2024/01/29 13:44:31;;;;;;;11.13;7.75;;;;;;;;;;5039013;28;20633;-74
2024/01/29 13:46:57;;;;;;;14.25;8.00;;;;;;;;;;5034698;28;20202;-74
2024/01/29 13:49:22;;;;;;;10.70;7.95;;;;;;;;;;5038039;28;20186;-74
2024/01/29 13:51:47;;;;;;;10.77;7.47;;;;;;;;;;5036213;28;20224;-74
2024/01/29 13:54:13;;;;;;;11.43;7.88;;;;;;;;;;5034054;28;20222;-75
2024/01/29 13:56:38;;;;;;;10.68;7.65;;;;;;;;;;5030355;28;20201;-74
2024/01/29 13:59:04;;;;;;;11.45;8.30;;;;;;;;;;5038185;28;20209;-75
2024/01/29 14:01:30;;;;;;;10.70;7.38;;;;;;;;;;5029089;28;20220;-74
2024/01/29 14:03:56;;;;;;;13.93;7.57;;;;;;;;;;5048316;28;20208;-74
2024/01/29 14:06:22;;;;;;;12.43;7.35;;;;;;;;;;5019783;28;20193;-74
2024/01/29 14:08:47;;;;;;;11.38;7.95;;;;;;;;;;5040129;28;20194;-74
2024/01/29 14:11:13;;;;;;;10.00;8.15;;;;;;;;;;5047057;28;20268;-74
2024/01/29 14:13:38;;;;;;;12.05;7.97;;;;;;;;;;5033922;28;20221;-74
2024/01/29 14:16:04;;;;;;;12.95;8.10;;;;;;;;;;5037294;28;20264;-74
2024/01/29 14:18:30;;;;;;;11.80;8.43;;;;;;;;;;5024612;28;20268;-74
2024/01/29 14:20:56;;;;;;;12.38;8.52;;;;;;;;;;5027137;28;20328;-74
2024/01/29 14:23:21;;;;;;;12.90;8.63;;;;;;;;;;5038720;28;20219;-74
2024/01/29 14:25:47;;;;;;;13.68;8.05;;;;;;;;;;5043285;28;20249;-74
2024/01/29 14:28:12;;;;;;;11.27;7.97;;;;;;;;;;5028318;28;20205;-74
2024/01/29 14:30:38;;;;;;;10.52;7.82;;;;;;;;;;5034296;28;20198;-74
2024/01/29 14:33:04;;;;;;;13.88;7.10;;;;;;;;;;5026986;28;20254;-74
2024/01/29 14:35:29;;;;;;;15.27;8.05;;;;;;;;;;5041111;28;20193;-74